Time;durP1;ratioP1;P1;durP2;ratioP2;P2;SDS_P1;SDS_P2;PMS_P1;PMS_P2;Temp;Humidity;BMP_temperature;BMP_pressure;BME280_temperature;BME280_humidity;BME280_pressure;Samples;Min_cycle;Max_cycle;Signal;HPM_P1;HPM_P2
2022/06/23 00:01:33;;;;;;;15.85;9.73;;;23.00;99.90;;;;;;5106554;28;20102;-84
2022/06/23 00:03:59;;;;;;;13.15;9.93;;;22.90;99.90;;;;;;5100951;28;20127;-83
2022/06/23 00:06:40;;;;;;;12.60;9.68;;;22.90;99.90;;;;;;5095895;28;20158;-84
2022/06/23 00:09:31;;;;;;;12.77;9.93;;;22.90;99.90;;;;;;5088564;28;20032;-84
2022/06/23 00:11:57;;;;;;;12.00;9.60;;;22.90;99.90;;;;;;5101245;27;20553;-84
2022/06/23 00:14:24;;;;;;;13.77;9.68;;;22.90;99.90;;;;;;5096730;28;20019;-84
2022/06/23 00:16:50;;;;;;;13.10;10.18;;;22.80;99.90;;;;;;5094102;28;20032;-83
2022/06/23 00:19:17;;;;;;;13.18;10.95;;;22.70;99.90;;;;;;5080379;28;20028;-84
2022/06/23 00:21:47;;;;;;;12.60;9.30;;;22.70;99.90;;;;;;5109451;28;20020;-84
2022/06/23 00:24:25;;;;;;;17.70;10.52;;;22.60;99.90;;;;;;5089322;28;20031;-84
2022/06/23 00:26:53;;;;;;;15.57;10.93;;;22.50;99.90;;;;;;5094230;28;20081;-84
2022/06/23 00:29:22;;;;;;;11.13;10.00;;;22.50;99.90;;;;;;5084945;28;20044;-84
2022/06/23 00:31:55;;;;;;;14.60;10.85;;;22.50;99.90;;;;;;5076138;28;20012;-84
2022/06/23 00:34:26;;;;;;;15.90;11.10;;;22.50;99.90;;;;;;5116529;27;20116;-84
2022/06/23 00:37:07;;;;;;;15.10;10.75;;;22.40;99.90;;;;;;5092127;28;20094;-85
2022/06/23 00:39:35;;;;;;;20.65;10.50;;;22.50;99.90;;;;;;5096989;28;20089;-85
2022/06/23 00:42:05;;;;;;;11.98;10.45;;;22.50;99.90;;;;;;5103244;27;20152;-85
2022/06/23 00:44:47;;;;;;;15.60;10.13;;;22.50;99.90;;;;;;5097921;28;20378;-85
2022/06/23 00:47:25;;;;;;;15.48;10.05;;;22.60;99.90;;;;;;5075468;28;20028;-84
2022/06/23 00:50:03;;;;;;;12.98;9.55;;;22.60;99.90;;;;;;5095859;28;20051;-84
2022/06/23 00:52:40;;;;;;;12.48;9.65;;;22.60;99.90;;;;;;5093535;28;20020;-84
2022/06/23 00:55:22;;;;;;;12.20;9.55;;;22.60;99.90;;;;;;5103366;28;20047;-84
2022/06/23 00:57:53;;;;;;;19.70;11.00;;;22.60;99.90;;;;;;5111113;28;20024;-84
2022/06/23 01:00:29;;;;;;;16.33;9.50;;;22.50;99.90;;;;;;5080918;28;20526;-83
2022/06/23 01:03:02;;;;;;;13.30;9.55;;;22.50;99.90;;;;;;5091834;28;20030;-84
2022/06/23 01:05:32;;;;;;;;;;;22.40;99.90;;;;;;5098110;28;20024;-85
2022/06/23 01:08:13;;;;;;;18.92;9.73;;;22.40;99.90;;;;;;5091840;28;19936;-84
2022/06/23 01:10:53;;;;;;;12.63;9.30;;;22.40;99.90;;;;;;5095379;27;20047;-84
2022/06/23 01:13:49;;;;;;;11.10;9.18;;;22.30;99.90;;;;;;5091492;28;20020;-84
2022/06/23 01:16:26;;;;;;;11.65;9.57;;;22.20;99.90;;;;;;5045845;28;20385;-85
2022/06/23 01:18:57;;;;;;;19.60;9.55;;;22.20;99.90;;;;;;5090906;28;20103;-84
2022/06/23 01:21:25;;;;;;;17.20;10.05;;;22.10;99.90;;;;;;5101974;28;20031;-84
2022/06/23 01:23:57;;;;;;;14.13;10.02;;;22.10;99.90;;;;;;5090549;28;20068;-84
2022/06/23 01:26:50;;;;;;;16.80;9.93;;;22.10;99.90;;;;;;5094516;28;20066;-85
2022/06/23 01:29:49;;;;;;;16.92;9.63;;;22.00;99.90;;;;;;5075720;28;20052;-84
2022/06/23 01:32:28;;;;;;;15.35;9.65;;;22.00;99.90;;;;;;5079939;28;20056;-84
2022/06/23 01:35:12;;;;;;;11.20;9.68;;;21.90;99.90;;;;;;5089383;28;20028;-84
2022/06/23 01:38:08;;;;;;;12.77;9.77;;;21.90;99.90;;;;;;5074775;28;20082;-83
2022/06/23 01:40:58;;;;;;;13.15;9.85;;;21.90;99.90;;;;;;5091496;28;20027;-83
2022/06/23 01:43:43;;;;;;;11.98;9.68;;;21.90;99.90;;;;;;5092135;28;20477;-83
2022/06/23 01:46:24;;;;;;;11.48;8.80;;;21.90;99.90;;;;;;5106851;28;20478;-83
2022/06/23 01:49:02;;;;;;;12.23;9.57;;;21.80;99.90;;;;;;5090576;28;20474;-84
2022/06/23 01:51:33;;;;;;;15.55;9.43;;;21.80;99.90;;;;;;5078766;28;20032;-83
2022/06/23 01:54:25;;;;;;;17.52;10.77;;;21.80;99.90;;;;;;5098278;28;20050;-83
2022/06/23 01:56:56;;;;;;;17.90;10.15;;;21.70;99.90;;;;;;5096779;28;20035;-83
2022/06/23 01:59:30;;;;;;;12.30;9.50;;;21.60;99.90;;;;;;5099632;28;20034;-84
2022/06/23 02:02:02;;;;;;;15.20;9.90;;;21.60;99.90;;;;;;5090639;28;20539;-84
2022/06/23 02:04:39;;;;;;;14.90;9.77;;;21.60;99.90;;;;;;5101025;28;20016;-83
2022/06/23 02:07:21;;;;;;;14.30;9.82;;;21.50;99.90;;;;;;5095597;28;20077;-83
2022/06/23 02:09:50;;;;;;;13.50;10.05;;;21.50;99.90;;;;;;5106772;28;20398;-84
2022/06/23 02:12:29;;;;;;;13.13;8.90;;;21.50;99.90;;;;;;5113509;28;20015;-84
2022/06/23 02:15:06;;;;;;;16.75;9.35;;;21.50;99.90;;;;;;5090825;28;20032;-84
2022/06/23 02:18:10;;;;;;;14.25;9.60;;;21.50;99.90;;;;;;5095292;28;20055;-84
2022/06/23 02:20:57;;;;;;;17.75;10.05;;;21.50;99.90;;;;;;4994778;28;20033;-84
2022/06/23 02:23:38;;;;;;;13.70;9.18;;;21.60;99.90;;;;;;5011850;28;20034;-84
2022/06/23 02:26:20;;;;;;;11.77;9.88;;;21.60;99.90;;;;;;5083277;28;20603;-82
2022/06/23 02:29:13;;;;;;;18.42;9.13;;;21.70;99.90;;;;;;5111975;28;20042;-85
2022/06/23 02:32:06;;;;;;;14.13;9.60;;;21.60;99.90;;;;;;5097542;28;20032;-84
2022/06/23 02:34:40;;;;;;;12.07;9.27;;;21.60;99.90;;;;;;5088950;28;20036;-85
2022/06/23 02:37:44;;;;;;;18.27;10.68;;;21.60;99.90;;;;;;5095039;28;20028;-84
2022/06/23 02:40:28;;;;;;;15.77;9.85;;;21.60;99.90;;;;;;5052054;27;20040;-84
2022/06/23 02:43:13;;;;;;;15.85;9.73;;;21.60;99.90;;;;;;5096362;28;20051;-84
2022/06/23 02:46:06;;;;;;;14.95;10.40;;;21.50;99.90;;;;;;5100098;28;20035;-84
2022/06/23 02:48:56;;;;;;;13.57;10.13;;;21.50;99.90;;;;;;5077061;28;20529;-85
2022/06/23 02:51:37;;;;;;;17.83;10.35;;;21.30;99.90;;;;;;5097021;28;20043;-85
2022/06/23 02:54:40;;;;;;;15.00;10.07;;;21.30;99.90;;;;;;5097216;28;20027;-85
2022/06/23 02:57:28;;;;;;;;;;;21.20;99.90;;;;;;5094645;28;20074;-85
2022/06/23 03:00:13;;;;;;;12.20;9.45;;;21.20;99.90;;;;;;5097397;28;19915;-85
2022/06/23 03:02:55;;;;;;;12.73;9.52;;;21.20;99.90;;;;;;5099136;27;20027;-84
2022/06/23 03:05:27;;;;;;;17.70;9.75;;;21.30;99.90;;;;;;5093750;28;20043;-85
2022/06/23 03:08:18;;;;;;;14.40;9.73;;;21.30;99.90;;;;;;5114157;28;20023;-84
2022/06/23 03:10:49;;;;;;;16.58;8.95;;;21.30;99.90;;;;;;5099303;28;20031;-84
2022/06/23 03:13:21;;;;;;;13.07;9.43;;;21.30;99.90;;;;;;5094011;28;20024;-84
2022/06/23 03:16:17;;;;;;;13.20;8.35;;;21.30;99.90;;;;;;5106962;28;20032;-83
2022/06/23 03:18:59;;;;;;;16.30;9.18;;;21.40;99.90;;;;;;5101161;28;20759;-84
2022/06/23 03:21:32;;;;;;;12.75;9.00;;;21.50;99.90;;;;;;5092282;28;20028;-84
2022/06/23 03:24:06;;;;;;;16.30;8.75;;;21.50;99.90;;;;;;5110448;28;20036;-84
2022/06/23 03:26:40;;;;;;;15.20;8.70;;;21.50;99.90;;;;;;5096747;28;20031;-84
2022/06/23 03:29:06;;;;;;;12.38;9.23;;;21.50;99.90;;;;;;5096750;28;20043;-85
2022/06/23 03:31:39;;;;;;;11.52;8.52;;;21.50;99.90;;;;;;5110667;28;20104;-83
2022/06/23 03:34:27;;;;;;;12.52;8.35;;;21.50;99.90;;;;;;5119583;27;20370;-85
2022/06/23 03:36:58;;;;;;;17.90;9.38;;;21.60;99.90;;;;;;5093352;28;20372;-85
2022/06/23 03:42:35;;;;;;;14.85;9.15;;;21.70;99.90;;;;;;5106302;27;20385;-84
2022/06/23 03:45:13;;;;;;;11.50;8.25;;;21.60;99.90;;;;;;5084407;28;20666;-85
2022/06/23 03:48:07;;;;;;;10.70;8.07;;;21.70;99.90;;;;;;5100357;28;20104;-85
2022/06/23 03:50:57;;;;;;;13.60;8.35;;;21.70;99.90;;;;;;5099695;28;20047;-84
2022/06/23 03:53:48;;;;;;;13.15;8.20;;;21.80;99.90;;;;;;5107351;28;20019;-84
2022/06/23 03:56:21;;;;;;;13.07;8.32;;;21.80;99.90;;;;;;5109538;28;20016;-84
2022/06/23 03:58:55;;;;;;;11.48;8.20;;;21.80;99.90;;;;;;5079705;28;20107;-85
2022/06/23 04:01:50;;;;;;;13.30;8.00;;;21.90;99.90;;;;;;5081263;28;20024;-85
2022/06/23 04:04:23;;;;;;;12.93;8.10;;;22.00;99.90;;;;;;5085441;28;20031;-84
2022/06/23 04:06:50;;;;;;;17.52;8.70;;;22.10;99.90;;;;;;5102421;28;20479;-84
2022/06/23 04:09:16;;;;;;;11.27;8.00;;;22.20;99.90;;;;;;5085052;28;20077;-84
2022/06/23 04:11:44;;;;;;;13.95;8.32;;;22.30;99.90;;;;;;5110906;27;20028;-85
2022/06/23 04:14:22;;;;;;;11.23;7.75;;;22.40;99.90;;;;;;5083550;28;20019;-85
2022/06/23 04:16:53;;;;;;;12.40;8.30;;;22.50;99.90;;;;;;5082040;28;20038;-85
2022/06/23 04:19:28;;;;;;;18.17;7.93;;;22.50;99.90;;;;;;5102845;28;20047;-84
2022/06/23 04:22:08;;;;;;;14.98;7.95;;;22.60;99.90;;;;;;5092285;28;20289;-85
2022/06/23 04:24:36;;;;;;;11.77;8.15;;;22.60;99.90;;;;;;5105752;28;20019;-85
2022/06/23 04:27:14;;;;;;;17.52;7.40;;;22.70;99.90;;;;;;5110637;28;20054;-84
2022/06/23 04:29:41;;;;;;;9.43;7.10;;;22.80;99.90;;;;;;5101046;28;20730;-84
2022/06/23 04:32:13;;;;;;;11.35;7.50;;;22.80;99.90;;;;;;5097244;27;20060;-84
2022/06/23 04:34:49;;;;;;;15.65;7.60;;;22.80;99.90;;;;;;5085974;28;20077;-84
2022/06/23 04:37:40;;;;;;;15.43;7.68;;;22.80;99.90;;;;;;5107423;28;20098;-84
2022/06/23 04:40:23;;;;;;;11.00;7.70;;;22.80;99.90;;;;;;5084475;28;20479;-84
2022/06/23 04:43:20;;;;;;;11.82;7.95;;;22.80;99.90;;;;;;5095284;28;20066;-82
2022/06/23 04:46:01;;;;;;;13.20;7.60;;;22.90;99.90;;;;;;5070470;28;20037;-85
2022/06/23 04:48:38;;;;;;;16.27;7.88;;;22.90;99.90;;;;;;5081730;28;20050;-86
2022/06/23 04:51:18;;;;;;;15.95;8.10;;;22.90;99.90;;;;;;5088949;28;20032;-85
2022/06/23 04:54:11;;;;;;;15.65;7.75;;;23.00;99.90;;;;;;5100053;28;20024;-85
2022/06/23 04:56:48;;;;;;;13.85;7.70;;;23.00;99.90;;;;;;5061802;28;20482;-85
2022/06/23 04:59:27;;;;;;;18.50;7.90;;;23.00;99.90;;;;;;5096303;28;20034;-85
2022/06/23 05:01:56;;;;;;;13.95;7.97;;;23.00;99.90;;;;;;5091692;28;20048;-85
2022/06/23 05:04:41;;;;;;;14.55;7.72;;;23.00;99.90;;;;;;5106142;28;20490;-86
2022/06/23 05:07:23;;;;;;;14.73;7.80;;;23.10;99.90;;;;;;5075175;28;20028;-85
2022/06/23 05:09:50;;;;;;;12.27;7.55;;;23.10;99.90;;;;;;5096056;28;20491;-85
2022/06/23 05:12:29;;;;;;;14.55;7.82;;;23.10;99.90;;;;;;5115396;27;20579;-85
2022/06/23 05:15:15;;;;;;;11.75;7.65;;;23.20;99.90;;;;;;5082190;28;20526;-84
2022/06/23 05:17:53;;;;;;;12.23;7.82;;;23.30;99.90;;;;;;5075156;28;20016;-83
2022/06/23 05:20:39;;;;;;;10.35;7.20;;;23.50;99.90;;;;;;5078432;28;20398;-85
2022/06/23 05:23:06;;;;;;;14.02;7.40;;;23.60;99.90;;;;;;5073901;28;20036;-84
2022/06/23 05:25:39;;;;;;;13.50;7.43;;;23.70;99.90;;;;;;5098463;28;20024;-83
2022/06/23 05:28:10;;;;;;;15.27;7.75;;;23.80;99.90;;;;;;5091470;28;20030;-84
2022/06/23 05:30:46;;;;;;;13.75;7.30;;;23.90;99.90;;;;;;5097005;28;20121;-84
2022/06/23 05:33:19;;;;;;;10.10;7.53;;;24.00;99.90;;;;;;5112013;28;20093;-84
2022/06/23 05:35:49;;;;;;;14.52;7.07;;;24.10;99.90;;;;;;5098043;28;20032;-84
2022/06/23 05:38:33;;;;;;;9.95;7.15;;;24.20;99.90;;;;;;5082083;28;20074;-84
2022/06/23 05:41:06;;;;;;;11.82;6.68;;;24.30;99.90;;;;;;5104300;28;20552;-86
2022/06/23 05:43:35;;;;;;;;;;;24.30;99.90;;;;;;5074502;28;20031;-85
2022/06/23 05:46:04;;;;;;;11.77;7.47;;;24.40;99.90;;;;;;5095664;28;19904;-85
2022/06/23 05:48:39;;;;;;;13.82;6.55;;;24.50;99.90;;;;;;5091855;28;20012;-85
2022/06/23 05:51:16;;;;;;;14.68;7.20;;;24.60;99.90;;;;;;5095597;28;20028;-86
2022/06/23 05:53:54;;;;;;;14.43;7.30;;;24.60;99.90;;;;;;5092727;28;20024;-85
2022/06/23 05:56:32;;;;;;;17.83;7.22;;;24.80;99.90;;;;;;5087344;28;20723;-85
2022/06/23 05:59:01;;;;;;;15.07;7.18;;;24.80;99.90;;;;;;5108158;28;20027;-85
2022/06/23 06:01:33;;;;;;;18.58;7.40;;;25.00;99.90;;;;;;5093944;28;20103;-84
2022/06/23 06:04:19;;;;;;;20.48;7.45;;;25.10;99.90;;;;;;5096443;28;20024;-84
2022/06/23 06:06:45;;;;;;;16.60;7.60;;;25.20;99.90;;;;;;5099556;28;20536;-84
2022/06/23 06:12:01;;;;;;;11.68;6.97;;;25.40;99.90;;;;;;5104945;28;20030;-84
2022/06/23 06:14:31;;;;;;;11.93;6.43;;;25.50;99.90;;;;;;5086962;28;20028;-85
2022/06/23 06:17:00;;;;;;;14.45;6.53;;;25.60;99.90;;;;;;5109628;28;20505;-85
2022/06/23 06:19:29;;;;;;;16.30;6.53;;;25.70;99.90;;;;;;5104605;28;20107;-85
2022/06/23 06:21:57;;;;;;;23.38;6.85;;;25.80;99.90;;;;;;5092463;28;20107;-85
2022/06/23 06:24:29;;;;;;;16.15;6.15;;;25.90;99.90;;;;;;5095117;28;20063;-85
2022/06/23 06:26:56;;;;;;;18.85;6.20;;;26.00;99.90;;;;;;5092342;28;20115;-85
2022/06/23 06:29:32;;;;;;;23.10;6.43;;;26.10;99.90;;;;;;5078423;28;20516;-83
2022/06/23 06:32:20;;;;;;;23.08;7.18;;;26.20;99.90;;;;;;5097509;28;20032;-84
2022/06/23 06:34:50;;;;;;;26.13;7.35;;;26.20;99.90;;;;;;5095884;28;20035;-82
2022/06/23 06:37:17;;;;;;;13.35;6.38;;;26.30;99.90;;;;;;5092950;28;20034;-89
2022/06/23 06:39:48;;;;;;;20.77;6.85;;;26.40;99.90;;;;;;5088745;28;20024;-88
2022/06/23 06:42:22;;;;;;;15.00;6.80;;;26.40;99.90;;;;;;5098543;28;20016;-90
2022/06/23 06:44:50;;;;;;;30.00;11.55;;;26.50;99.90;;;;;;5083657;28;20486;-84
2022/06/23 06:47:19;;;;;;;13.60;6.22;;;26.60;99.90;;;;;;5112879;28;20142;-82
2022/06/23 06:49:46;;;;;;;15.35;6.28;;;26.60;99.90;;;;;;5106322;28;20031;-87
2022/06/23 06:52:13;;;;;;;18.85;7.00;;;26.70;99.90;;;;;;5087969;28;20024;-83
2022/06/23 06:54:44;;;;;;;12.23;6.18;;;26.80;99.90;;;;;;5108125;28;20024;-83
2022/06/23 06:57:15;;;;;;;13.03;5.57;;;26.80;99.90;;;;;;5109187;28;20027;-83
2022/06/23 06:59:54;;;;;;;13.17;5.77;;;26.90;99.90;;;;;;5086022;28;20383;-89
2022/06/23 07:02:26;;;;;;;14.07;5.82;;;27.00;99.90;;;;;;5099149;28;20632;-92
2022/06/23 07:05:04;;;;;;;18.30;6.40;;;27.10;99.90;;;;;;5100985;28;20505;-86
2022/06/23 07:07:36;;;;;;;15.70;5.43;;;27.30;99.90;;;;;;5108988;28;20035;-86
2022/06/23 07:10:51;;;;;;;17.73;5.88;;;27.30;99.90;;;;;;5109580;27;20511;-88
2022/06/23 07:13:38;;;;;;;14.52;6.07;;;27.30;99.90;;;;;;5098802;27;20034;-82
2022/06/23 07:16:17;;;;;;;15.57;6.03;;;27.40;99.90;;;;;;5081634;28;20028;-83
2022/06/23 07:18:58;;;;;;;12.02;6.00;;;27.40;99.90;;;;;;5075319;28;20084;-83
2022/06/23 07:21:36;;;;;;;12.50;6.30;;;27.50;99.90;;;;;;5102107;28;20035;-83
2022/06/23 07:24:21;;;;;;;12.95;6.22;;;27.60;99.90;;;;;;5089661;28;20055;-83
2022/06/23 07:26:59;;;;;;;13.18;5.95;;;27.60;99.90;;;;;;5092531;28;20028;-84
2022/06/23 07:29:43;;;;;;;12.80;5.78;;;27.60;99.90;;;;;;5104949;28;20131;-84
2022/06/23 07:32:14;;;;;;;12.85;6.75;;;27.70;99.90;;;;;;5103549;28;20063;-84
2022/06/23 07:34:51;;;;;;;15.40;6.53;;;27.80;99.90;;;;;;5103951;28;20020;-83
2022/06/23 07:37:32;;;;;;;17.73;6.22;;;27.90;99.90;;;;;;5093355;28;20116;-84
2022/06/23 07:40:05;;;;;;;18.23;5.45;;;27.90;99.90;;;;;;5098443;27;20077;-83
2022/06/23 07:42:50;;;;;;;12.68;6.13;;;28.10;99.90;;;;;;5079831;28;20027;-84
2022/06/23 07:45:47;;;;;;;22.20;6.90;;;28.10;99.90;;;;;;5097531;28;20044;-82
2022/06/23 07:48:12;;;;;;;16.13;7.13;;;28.10;99.90;;;;;;5092997;28;20020;-82
2022/06/23 07:50:38;;;;;;;13.30;6.57;;;28.00;99.90;;;;;;5105937;28;20043;-83
2022/06/23 07:53:06;;;;;;;11.63;6.13;;;27.80;99.90;;;;;;5112850;28;20414;-82
2022/06/23 07:55:44;;;;;;;10.93;6.30;;;27.70;99.90;;;;;;5096040;28;20024;-82
2022/06/23 07:58:18;;;;;;;16.92;6.07;;;27.30;99.90;;;;;;5089720;28;20546;-81
2022/06/23 08:00:46;;;;;;;11.38;5.95;;;27.10;99.90;;;;;;5095019;28;20031;-83
2022/06/23 08:03:27;;;;;;;10.63;5.57;;;26.90;99.90;;;;;;5110230;27;20051;-82
2022/06/23 08:05:59;;;;;;;14.63;6.13;;;27.00;99.90;;;;;;5094959;28;20088;-82
2022/06/23 08:08:30;;;;;;;10.95;6.65;;;27.00;99.90;;;;;;5091155;27;20036;-82
2022/06/23 08:13:50;;;;;;;11.77;6.53;;;27.10;99.90;;;;;;5106837;28;20059;-82
2022/06/23 08:19:16;;;;;;;12.30;6.28;;;27.40;99.90;;;;;;5092110;28;20030;-82
2022/06/23 08:21:53;;;;;;;11.50;6.40;;;27.50;99.90;;;;;;5105803;28;20043;-82
2022/06/23 08:24:24;;;;;;;19.75;6.97;;;27.60;99.90;;;;;;5084969;28;20031;-82
2022/06/23 08:26:57;;;;;;;9.52;6.40;;;27.60;99.90;;;;;;5090227;28;20081;-83
2022/06/23 08:29:27;;;;;;;16.77;6.97;;;27.60;99.90;;;;;;5092498;28;20074;-81
2022/06/23 08:31:54;;;;;;;14.68;7.13;;;27.80;99.90;;;;;;5089819;28;20028;-82
2022/06/23 08:34:20;;;;;;;12.05;7.55;;;27.90;99.90;;;;;;5102013;28;20050;-79
2022/06/23 08:36:49;;;;;;;19.65;7.25;;;28.00;99.90;;;;;;5090570;28;20024;-80
2022/06/23 08:39:45;;;;;;;12.73;6.38;;;27.90;99.90;;;;;;5091604;28;20020;-81
2022/06/23 08:42:35;;;;;;;20.67;7.70;;;28.10;99.90;;;;;;5106177;28;20434;-80
2022/06/23 08:45:09;;;;;;;13.50;7.38;;;27.80;99.90;;;;;;5103221;28;20024;-82
2022/06/23 08:47:57;;;;;;;18.27;7.07;;;27.70;99.90;;;;;;5106705;28;20024;-82
2022/06/23 08:50:29;;;;;;;14.95;7.03;;;27.70;99.90;;;;;;5076681;28;20039;-82
2022/06/23 08:53:01;;;;;;;21.73;6.90;;;27.80;99.90;;;;;;5069875;28;20733;-82
2022/06/23 08:55:29;;;;;;;12.02;6.90;;;27.90;99.90;;;;;;5093689;28;20123;-82
2022/06/23 08:58:21;;;;;;;18.42;6.45;;;27.90;99.90;;;;;;5069965;28;20047;-82
2022/06/23 09:01:03;;;;;;;19.63;6.68;;;27.80;99.90;;;;;;5082619;28;20047;-82
2022/06/23 09:03:43;;;;;;;20.52;7.85;;;27.70;99.90;;;;;;5106493;28;20039;-81
2022/06/23 09:06:22;;;;;;;16.17;7.38;;;27.70;99.90;;;;;;5103583;28;20030;-82
2022/06/23 09:09:00;;;;;;;17.80;8.32;;;27.60;99.90;;;;;;5105344;28;20172;-82
2022/06/23 09:11:51;;;;;;;14.18;7.45;;;27.60;99.90;;;;;;5100507;28;20036;-82
2022/06/23 09:14:19;;;;;;;13.95;7.40;;;27.60;99.90;;;;;;5101979;28;20538;-82
2022/06/23 09:17:04;;;;;;;12.18;6.97;;;27.60;99.90;;;;;;5090313;28;20020;-83
2022/06/23 09:19:48;;;;;;;12.98;7.18;;;27.60;99.90;;;;;;5074385;28;20131;-83
2022/06/23 09:23:05;;;;;;;10.00;7.22;;;27.80;99.90;;;;;;5070871;28;20063;-83
2022/06/23 09:25:33;;;;;;;14.38;7.00;;;27.80;99.90;;;;;;5049406;28;20039;-83
2022/06/23 09:28:22;;;;;;;11.68;6.50;;;27.60;99.90;;;;;;5089665;28;20501;-83
2022/06/23 09:31:12;;;;;;;13.43;7.38;;;27.60;99.90;;;;;;5101798;28;20093;-83
2022/06/23 09:33:47;;;;;;;14.57;7.15;;;27.80;99.90;;;;;;5087487;28;20268;-83
2022/06/23 09:36:25;;;;;;;15.73;7.57;;;27.90;99.90;;;;;;5085431;28;20492;-83
2022/06/23 09:39:23;;;;;;;14.35;7.00;;;27.90;99.90;;;;;;5103746;28;20478;-83
2022/06/23 09:41:52;;;;;;;15.07;7.15;;;28.10;99.90;;;;;;5093338;28;20039;-82
2022/06/23 09:44:23;;;;;;;19.35;7.00;;;28.10;99.90;;;;;;5101876;28;20047;-82
2022/06/23 09:46:55;;;;;;;16.67;7.25;;;27.90;99.90;;;;;;5089145;28;20023;-83
2022/06/23 09:49:23;;;;;;;9.93;6.88;;;27.70;99.90;;;;;;5092599;28;20027;-83
2022/06/23 09:52:11;;;;;;;19.60;7.22;;;27.80;99.90;;;;;;5087250;28;20032;-84
2022/06/23 09:55:12;;;;;;;20.25;8.48;;;27.60;99.90;;;;;;5100355;28;20072;-82
2022/06/23 09:58:20;;;;;;;12.48;8.30;;;27.30;99.90;;;;;;5088942;28;20039;-82
2022/06/23 10:00:48;;;;;;;21.27;8.98;;;27.10;99.90;;;;;;5092790;28;20042;-82
2022/06/23 10:03:38;;;;;;;10.68;9.25;;;27.00;99.90;;;;;;5097640;28;20035;-83
2022/06/23 10:06:29;;;;;;;20.38;10.80;;;26.80;99.90;;;;;;5102334;28;20393;-81
2022/06/23 10:09:26;;;;;;;21.83;9.68;;;26.90;99.90;;;;;;5103261;28;20030;-83
2022/06/23 10:11:57;;;;;;;15.45;10.90;;;26.80;99.90;;;;;;5095552;28;20078;-84
2022/06/23 10:14:33;;;;;;;17.83;10.52;;;26.80;99.90;;;;;;5109300;28;20099;-82
2022/06/23 10:17:38;;;;;;;15.48;12.95;;;26.90;99.90;;;;;;5094532;28;20028;-83
2022/06/23 10:20:19;;;;;;;17.92;11.68;;;26.90;99.90;;;;;;5087682;28;20028;-82
2022/06/23 10:23:09;;;;;;;13.52;10.98;;;26.80;99.90;;;;;;5113465;28;20047;-82
2022/06/23 10:25:40;;;;;;;18.63;13.52;;;27.10;99.90;;;;;;5101059;28;20616;-82
2022/06/23 10:28:12;;;;;;;21.23;14.30;;;26.80;99.90;;;;;;5076342;28;20588;-82
2022/06/23 10:30:37;;;;;;;21.73;13.93;;;26.50;99.90;;;;;;5078865;28;20087;-81
2022/06/23 10:33:21;;;;;;;18.80;12.55;;;26.50;99.90;;;;;;5083508;28;20440;-81
2022/06/23 10:35:53;;;;;;;26.55;15.60;;;26.70;99.90;;;;;;5086382;28;20025;-81
2022/06/23 10:38:42;;;;;;;19.63;15.25;;;26.80;99.90;;;;;;5093697;28;20039;-83
2022/06/23 10:41:36;;;;;;;23.50;18.77;;;26.80;99.90;;;;;;5085891;28;20066;-81
2022/06/23 10:44:22;;;;;;;23.52;15.90;;;26.60;99.90;;;;;;5077005;28;20471;-81
2022/06/23 10:47:09;;;;;;;24.95;18.17;;;26.80;99.90;;;;;;5092242;28;20073;-83
2022/06/23 10:49:56;;;;;;;28.85;19.67;;;26.90;99.90;;;;;;5086627;28;20035;-83
2022/06/23 10:52:42;;;;;;;25.33;17.52;;;26.60;99.90;;;;;;5089000;28;20161;-84
2022/06/23 10:55:28;;;;;;;34.92;17.52;;;26.60;99.90;;;;;;5082190;28;20364;-83
2022/06/23 10:58:06;;;;;;;23.85;15.25;;;26.80;99.90;;;;;;5094033;28;20020;-83
2022/06/23 11:00:47;;;;;;;18.00;11.43;;;27.00;99.90;;;;;;5080155;28;20597;-83
2022/06/23 11:03:44;;;;;;;18.35;11.32;;;27.30;99.90;;;;;;5083921;28;20030;-84
2022/06/23 11:06:41;;;;;;;16.85;12.13;;;27.50;99.90;;;;;;5089209;28;20108;-83
2022/06/23 11:09:25;;;;;;;33.88;14.85;;;27.80;99.90;;;;;;5088902;28;20514;-83
2022/06/23 11:12:00;;;;;;;20.40;14.23;;;27.80;99.90;;;;;;5085998;28;20051;-84
2022/06/23 11:14:44;;;;;;;24.67;12.85;;;27.90;99.90;;;;;;5077794;28;20425;-83
2022/06/23 11:17:54;;;;;;;22.38;13.25;;;27.80;99.90;;;;;;5074812;28;20108;-83
2022/06/23 11:20:54;;;;;;;18.23;11.50;;;28.00;99.90;;;;;;5076452;28;20033;-83
2022/06/23 11:23:43;;;;;;;24.60;13.45;;;28.20;99.90;;;;;;5072099;28;20027;-80
2022/06/23 11:26:39;;;;;;;26.83;13.52;;;28.10;99.90;;;;;;5073298;28;20029;-83
2022/06/23 11:29:33;;;;;;;24.02;14.02;;;28.70;99.90;;;;;;5074273;28;20035;-82
2022/06/23 11:32:35;;;;;;;23.90;12.40;;;28.70;99.90;;;;;;5073324;28;20070;-82
2022/06/23 11:35:21;;;;;;;26.90;13.57;;;28.70;99.90;;;;;;5082624;28;20114;-81
2022/06/23 11:37:47;;;;;;;32.10;16.20;;;28.70;99.90;;;;;;5091976;28;20016;-81
2022/06/23 11:40:24;;;;;;;27.45;13.80;;;28.40;99.90;;;;;;5086420;28;20033;-81
2022/06/23 11:42:50;;;;;;;32.00;15.35;;;28.30;99.90;;;;;;5092617;28;20027;-84
2022/06/23 11:45:34;;;;;;;23.80;14.40;;;28.10;99.90;;;;;;5087013;28;20027;-81
2022/06/23 11:48:15;;;;;;;24.50;13.95;;;28.00;99.90;;;;;;5072943;28;20434;-81
2022/06/23 11:51:10;;;;;;;21.88;12.85;;;28.00;99.90;;;;;;5086623;28;20045;-80
2022/06/23 11:54:15;;;;;;;30.02;15.27;;;28.10;99.90;;;;;;5083911;28;20028;-88
2022/06/23 11:56:52;;;;;;;35.85;27.13;;;28.10;99.90;;;;;;5077515;28;20123;-82
2022/06/23 11:59:53;;;;;;;28.52;19.17;;;27.70;99.90;;;;;;5076113;28;20024;-80
2022/06/23 12:02:19;;;;;;;31.88;18.23;;;27.70;99.90;;;;;;5078676;28;20501;-80
2022/06/23 12:05:23;;;;;;;35.38;20.20;;;28.50;99.90;;;;;;5088704;28;20035;-79
2022/06/23 12:08:13;;;;;;;37.75;22.58;;;31.40;99.90;;;;;;5069256;28;20107;-80
2022/06/23 12:10:39;;;;;;;33.40;19.45;;;32.10;99.90;;;;;;5086026;28;20040;-83
2022/06/23 12:13:06;;;;;;;33.40;20.27;;;32.90;99.90;;;;;;5069483;28;20017;-79
2022/06/23 12:15:39;;;;;;;35.50;20.25;;;33.90;99.90;;;;;;5074110;28;20062;-80
2022/06/23 12:18:15;;;;;;;31.10;17.60;;;34.10;99.90;;;;;;5089580;28;20020;-81
2022/06/23 12:20:48;;;;;;;33.65;19.38;;;34.50;99.90;;;;;;5080817;28;20514;-81
2022/06/23 12:23:39;;;;;;;35.30;21.02;;;35.10;99.90;;;;;;5087538;28;20133;-81
2022/06/23 12:26:23;;;;;;;37.25;22.17;;;35.10;99.90;;;;;;5080880;28;20086;-81
2022/06/23 12:29:04;;;;;;;32.53;19.48;;;34.80;99.90;;;;;;5073566;28;20046;-80
2022/06/23 12:31:41;;;;;;;39.13;21.10;;;33.50;99.90;;;;;;5089035;28;20046;-82
2022/06/23 12:34:16;;;;;;;32.22;19.85;;;33.00;99.90;;;;;;5094380;28;20564;-87
2022/06/23 12:36:55;;;;;;;33.00;20.30;;;33.30;99.90;;;;;;5088184;28;20020;-83
2022/06/23 12:39:37;;;;;;;31.80;21.08;;;33.10;99.90;;;;;;5105129;28;20023;-81
2022/06/23 12:42:10;;;;;;;38.42;21.08;;;32.30;99.90;;;;;;5097314;27;20541;-82
2022/06/23 12:44:59;;;;;;;41.20;18.00;;;31.60;99.90;;;;;;5094627;28;20032;-82
2022/06/23 12:48:03;;;;;;;44.42;25.42;;;31.50;99.90;;;;;;5093315;28;20474;-91
2022/06/23 12:50:59;;;;;;;36.58;20.58;;;31.80;99.90;;;;;;5101843;28;20035;-80
2022/06/23 12:53:43;;;;;;;31.33;21.55;;;32.40;99.90;;;;;;5088880;28;20020;-87
2022/06/23 12:56:40;;;;;;;45.17;28.92;;;34.30;99.90;;;;;;5097424;28;20611;-81
2022/06/23 12:59:21;;;;;;;41.05;26.63;;;34.90;99.90;;;;;;5092079;28;20028;-83
2022/06/23 13:02:23;;;;;;;36.47;25.67;;;34.50;99.90;;;;;;5079184;28;20063;-81
2022/06/23 13:04:58;;;;;;;33.35;19.55;;;34.90;99.90;;;;;;5080373;28;20024;-82
2022/06/23 13:07:28;;;;;;;43.10;26.60;;;35.60;99.90;;;;;;5107174;28;20034;-85
2022/06/23 13:10:03;;;;;;;30.10;22.58;;;35.90;99.90;;;;;;5081000;28;20044;-82
2022/06/23 13:12:35;;;;;;;32.35;18.35;;;36.80;99.90;;;;;;5094603;28;20119;-82
2022/06/23 13:15:13;;;;;;;36.10;22.55;;;36.90;99.90;;;;;;5074787;28;20098;-83
2022/06/23 13:17:54;;;;;;;27.27;15.98;;;37.30;99.90;;;;;;5102482;28;20607;-83
2022/06/23 13:20:50;;;;;;;29.38;16.58;;;37.30;99.90;;;;;;5077752;28;20074;-86
2022/06/23 13:23:32;;;;;;;29.95;16.63;;;37.70;99.90;;;;;;5095277;28;20067;-85
2022/06/23 13:26:18;;;;;;;28.67;17.45;;;38.60;99.90;;;;;;5093614;28;20028;-85
2022/06/23 13:28:46;;;;;;;33.10;17.23;;;38.80;99.90;;;;;;5071828;28;20111;-85
2022/06/23 13:31:29;;;;;;;25.30;16.25;;;38.40;99.90;;;;;;5104062;28;20032;-85
2022/06/23 13:34:05;;;;;;;32.28;15.10;;;38.00;99.90;;;;;;5097690;28;20019;-89
2022/06/23 13:37:01;;;;;;;36.78;17.40;;;38.30;99.90;;;;;;5105417;28;20023;-84
2022/06/23 13:39:36;;;;;;;31.75;17.23;;;38.70;99.90;;;;;;5087061;28;20022;-87
2022/06/23 13:42:15;;;;;;;31.90;15.88;;;38.50;99.90;;;;;;5098021;28;20024;-83
2022/06/23 13:44:59;;;;;;;30.13;16.77;;;38.20;99.90;;;;;;5101540;28;20081;-88
2022/06/23 13:47:36;;;;;;;26.92;17.20;;;38.40;99.90;;;;;;5075507;28;20479;-87